createdAt,value
2022-09-17T00:01:02.484Z,8.65
2022-09-17T00:03:29.416Z,9.32
2022-09-17T00:06:07.121Z,8.93
2022-09-17T00:08:35.642Z,9.65
2022-09-17T00:11:10.638Z,9.90
2022-09-17T00:13:37.546Z,8.85
2022-09-17T00:16:04.419Z,8.57
2022-09-17T00:18:31.390Z,8.18
2022-09-17T00:20:58.366Z,8.65
2022-09-17T00:23:25.435Z,9.65
2022-09-17T00:25:52.078Z,9.43
2022-09-17T00:28:18.710Z,9.23
2022-09-17T00:30:46.599Z,7.25
2022-09-17T00:33:16.034Z,8.20
2022-09-17T00:35:43.762Z,7.07
2022-09-17T00:38:11.225Z,8.95
2022-09-17T00:40:38.675Z,7.47
2022-09-17T00:43:10.226Z,7.78
2022-09-17T00:45:39.254Z,7.88
2022-09-17T00:48:06.841Z,7.90
2022-09-17T00:50:42.125Z,6.72
2022-09-17T00:53:14.009Z,7.07
2022-09-17T00:55:45.369Z,7.10
2022-09-17T00:58:14.359Z,6.65
2022-09-17T01:00:42.361Z,7.22
2022-09-17T01:03:09.056Z,6.90
2022-09-17T01:05:51.513Z,6.47
2022-09-17T01:08:27.878Z,6.45
2022-09-17T01:11:18.679Z,6.57
2022-09-17T01:13:48.277Z,6.88
2022-09-17T01:16:31.693Z,6.63
2022-09-17T01:19:09.002Z,6.47
2022-09-17T01:21:53.704Z,6.75
2022-09-17T01:24:42.845Z,7.28
2022-09-17T01:27:21.392Z,6.47
2022-09-17T01:30:13.415Z,6.97
2022-09-17T01:32:52.736Z,7.43
2022-09-17T01:35:46.666Z,6.90
2022-09-17T01:38:34.531Z,6.38
2022-09-17T01:41:07.880Z,7.43
2022-09-17T01:43:52.651Z,7.15
2022-09-17T01:46:24.701Z,7.15
2022-09-17T01:51:24.118Z,8.32
2022-09-17T01:53:59.432Z,9.43
2022-09-17T01:56:38.813Z,8.75
2022-09-17T01:59:16.629Z,8.20
2022-09-17T02:01:48.157Z,10.18
2022-09-17T02:04:28.355Z,9.02
2022-09-17T02:07:03.241Z,8.48
2022-09-17T02:09:43.869Z,8.50
2022-09-17T02:12:20.330Z,9.43
2022-09-17T02:14:54.065Z,9.63
2022-09-17T02:17:37.025Z,8.98
2022-09-17T02:20:05.469Z,8.00
2022-09-17T02:22:42.592Z,8.98
2022-09-17T02:25:24.159Z,7.97
2022-09-17T02:28:14.832Z,7.63
2022-09-17T02:30:44.603Z,8.57
2022-09-17T02:33:15.130Z,8.60
2022-09-17T02:35:44.152Z,7.22
2022-09-17T02:38:11.141Z,7.53
2022-09-17T02:40:51.157Z,8.43
2022-09-17T02:43:49.337Z,6.63
2022-09-17T02:46:37.612Z,8.18
2022-09-17T02:49:42.638Z,8.30
2022-09-17T02:52:31.753Z,5.93
2022-09-17T02:55:18.980Z,8.05
2022-09-17T02:58:14.798Z,7.18
2022-09-17T03:00:42.985Z,7.82
2022-09-17T03:03:17.196Z,7.53
2022-09-17T03:05:45.538Z,7.65
2022-09-17T03:08:18.470Z,8.48
2022-09-17T03:10:45.272Z,7.20
2022-09-17T03:13:12.078Z,8.13
2022-09-17T03:15:38.765Z,8.55
2022-09-17T03:18:05.545Z,8.13
2022-09-17T03:20:32.201Z,7.65
2022-09-17T03:22:58.826Z,8.20
2022-09-17T03:25:25.443Z,6.97
2022-09-17T03:27:52.437Z,7.68
2022-09-17T03:30:19.912Z,7.30
2022-09-17T03:32:46.898Z,7.43
2022-09-17T03:35:13.641Z,6.63
2022-09-17T03:37:40.590Z,6.63
2022-09-17T03:40:07.917Z,6.28
2022-09-17T03:42:34.657Z,6.88
2022-09-17T03:45:02.942Z,7.38
2022-09-17T03:47:29.901Z,7.35
2022-09-17T03:49:56.549Z,7.22
2022-09-17T03:52:23.196Z,7.10
2022-09-17T03:54:49.793Z,7.75
2022-09-17T03:57:16.929Z,6.65
2022-09-17T03:59:43.589Z,6.18
2022-09-17T04:02:10.268Z,6.90
2022-09-17T04:04:36.962Z,6.78
2022-09-17T04:07:03.692Z,7.80
2022-09-17T04:09:30.982Z,6.50
2022-09-17T04:11:57.906Z,6.57
2022-09-17T04:14:24.530Z,7.43
2022-09-17T04:16:51.154Z,7.50
2022-09-17T04:19:17.793Z,7.15
2022-09-17T04:21:44.442Z,7.22
2022-09-17T04:24:11.139Z,7.05
2022-09-17T04:26:37.769Z,6.72
2022-09-17T04:29:04.734Z,6.65
2022-09-17T04:31:31.410Z,7.80
2022-09-17T04:33:58.099Z,7.30
2022-09-17T04:36:24.728Z,8.57
2022-09-17T04:38:51.414Z,8.07
2022-09-17T04:41:18.106Z,6.70
2022-09-17T04:43:44.940Z,7.32
2022-09-17T04:46:11.758Z,8.88
2022-09-17T04:48:38.491Z,8.75
2022-09-17T04:51:05.380Z,8.73
2022-09-17T04:53:32.045Z,9.60
2022-09-17T04:55:58.687Z,7.82
2022-09-17T04:58:25.433Z,7.70
2022-09-17T05:00:52.192Z,8.73
2022-09-17T05:03:18.947Z,9.98
2022-09-17T05:05:45.578Z,8.45
2022-09-17T05:08:12.240Z,8.43
2022-09-17T05:10:38.918Z,9.07
2022-09-17T05:13:05.624Z,8.88
2022-09-17T05:15:32.304Z,9.10
2022-09-17T05:17:58.950Z,8.55
2022-09-17T05:20:25.660Z,9.27
2022-09-17T05:22:52.909Z,7.88
2022-09-17T05:25:24.556Z,9.23
2022-09-17T05:27:52.883Z,9.93
2022-09-17T05:30:19.678Z,9.73
2022-09-17T05:32:47.083Z,9.77
2022-09-17T05:35:13.796Z,10.02
2022-09-17T05:37:40.711Z,10.68
2022-09-17T05:40:08.789Z,10.75
2022-09-17T05:42:35.611Z,10.10
2022-09-17T05:45:02.503Z,11.45
2022-09-17T05:47:29.190Z,10.05
2022-09-17T05:49:55.888Z,10.45
2022-09-17T05:52:23.078Z,11.52
2022-09-17T05:54:49.721Z,10.98
2022-09-17T05:57:16.426Z,11.07
2022-09-17T05:59:43.174Z,11.30
2022-09-17T06:02:13.647Z,11.50
2022-09-17T06:04:40.689Z,10.68
2022-09-17T06:07:09.094Z,11.77
2022-09-17T06:09:37.477Z,12.43
2022-09-17T06:12:05.377Z,11.40
2022-09-17T06:14:32.164Z,11.43
2022-09-17T06:16:58.868Z,11.52
2022-09-17T06:19:25.560Z,11.40
2022-09-17T06:21:52.236Z,11.93
2022-09-17T06:24:18.996Z,12.13
2022-09-17T06:26:45.636Z,11.50
2022-09-17T06:29:15.069Z,11.57
2022-09-17T06:31:44.582Z,12.05
2022-09-17T06:34:12.188Z,10.98
2022-09-17T06:36:39.122Z,10.27
2022-09-17T06:39:06.061Z,11.18
2022-09-17T06:41:33.170Z,11.10
2022-09-17T06:44:00.046Z,10.23
2022-09-17T06:46:27.178Z,10.23
2022-09-17T06:48:54.059Z,11.52
2022-09-17T06:51:22.406Z,10.02
2022-09-17T06:53:49.141Z,10.68
2022-09-17T06:56:16.072Z,10.63
2022-09-17T06:58:45.683Z,10.50
2022-09-17T07:01:13.410Z,9.98
2022-09-17T07:03:43.332Z,10.27
2022-09-17T07:06:10.802Z,9.65
2022-09-17T07:08:38.952Z,9.70
2022-09-17T07:11:05.747Z,9.77
2022-09-17T07:13:32.416Z,8.77
2022-09-17T07:16:02.996Z,8.63
2022-09-17T07:18:29.889Z,9.32
2022-09-17T07:20:58.599Z,8.60
2022-09-17T07:23:27.587Z,8.15
2022-09-17T07:25:59.323Z,8.27
2022-09-17T07:28:27.589Z,6.53
2022-09-17T07:30:54.715Z,7.20
2022-09-17T07:33:24.823Z,8.43
2022-09-17T07:36:05.057Z,6.95
2022-09-17T07:38:32.106Z,6.43
2022-09-17T07:41:02.996Z,6.25
2022-09-17T07:43:32.310Z,5.70
2022-09-17T07:46:00.703Z,6.10
2022-09-17T07:48:28.287Z,5.32
2022-09-17T07:50:55.942Z,4.55
2022-09-17T07:53:23.038Z,4.55
2022-09-17T07:55:58.051Z,4.25
2022-09-17T07:58:32.348Z,4.18
2022-09-17T08:01:02.386Z,3.50
2022-09-17T08:03:29.342Z,3.38
2022-09-17T08:06:03.731Z,3.83
2022-09-17T08:08:32.601Z,4.13
2022-09-17T08:11:04.231Z,3.20
2022-09-17T08:13:30.986Z,3.20
2022-09-17T08:16:04.269Z,3.90
2022-09-17T08:18:31.784Z,3.65
2022-09-17T08:21:03.938Z,3.42
2022-09-17T08:23:32.012Z,3.08
2022-09-17T08:26:00.401Z,3.78
2022-09-17T08:28:28.905Z,4.10
2022-09-17T08:31:04.911Z,3.53
2022-09-17T08:33:36.829Z,3.15
2022-09-17T08:36:04.514Z,2.97
2022-09-17T08:38:37.229Z,3.47
2022-09-17T08:41:11.271Z,4.60
2022-09-17T08:43:49.728Z,4.10
2022-09-17T08:46:17.648Z,3.72
2022-09-17T08:48:54.218Z,3.05
2022-09-17T08:51:29.939Z,3.28
2022-09-17T08:54:05.871Z,3.08
2022-09-17T08:56:34.642Z,3.20
2022-09-17T08:59:11.940Z,3.22
2022-09-17T09:02:04.099Z,3.10
2022-09-17T09:04:58.321Z,2.75
2022-09-17T09:07:28.955Z,2.88
2022-09-17T09:10:23.375Z,2.25
2022-09-17T09:12:52.579Z,2.90
2022-09-17T09:15:33.313Z,2.75
2022-09-17T09:18:09.543Z,2.90
2022-09-17T09:20:48.757Z,2.80
2022-09-17T09:23:21.348Z,2.92
2022-09-17T09:25:55.243Z,2.60
2022-09-17T09:28:44.402Z,2.65
2022-09-17T09:31:26.167Z,2.70
2022-09-17T09:33:53.156Z,3.15
2022-09-17T09:36:21.808Z,3.35
2022-09-17T09:38:53.653Z,2.30
2022-09-17T09:41:32.811Z,3.50
2022-09-17T09:44:10.082Z,2.97
2022-09-17T09:46:42.925Z,2.33
2022-09-17T09:49:40.578Z,2.80
2022-09-17T09:52:37.643Z,1.90
2022-09-17T09:55:07.477Z,2.40
2022-09-17T09:57:37.192Z,2.33
2022-09-17T10:00:35.677Z,2.20
2022-09-17T10:03:32.660Z,2.35
2022-09-17T10:06:03.684Z,1.88
2022-09-17T10:08:34.642Z,1.55
2022-09-17T10:11:11.387Z,2.50
2022-09-17T10:13:38.602Z,1.92
2022-09-17T10:16:20.214Z,2.10
2022-09-17T10:18:51.396Z,1.55
2022-09-17T10:21:22.473Z,1.80
2022-09-17T10:23:50.710Z,1.50
2022-09-17T10:26:33.511Z,1.90
2022-09-17T10:29:06.561Z,1.83
2022-09-17T10:31:49.969Z,2.13
2022-09-17T10:34:26.868Z,1.90
2022-09-17T10:36:56.574Z,1.13
2022-09-17T10:39:44.022Z,2.67
2022-09-17T10:42:14.795Z,1.50
2022-09-17T10:44:54.707Z,1.20
2022-09-17T10:47:36.116Z,1.70
2022-09-17T10:50:07.212Z,1.55
2022-09-17T10:52:43.739Z,2.40
2022-09-17T10:55:28.442Z,1.42
2022-09-17T10:58:07.489Z,1.60
2022-09-17T11:01:18.948Z,1.88
2022-09-17T11:04:04.461Z,2.15
2022-09-17T11:06:46.320Z,2.05
2022-09-17T11:09:25.698Z,1.88
2022-09-17T11:11:59.403Z,1.73
2022-09-17T11:15:02.968Z,1.67
2022-09-17T11:17:49.996Z,2.25
2022-09-17T11:20:30.276Z,1.38
2022-09-17T11:23:32.234Z,1.63
2022-09-17T11:26:05.928Z,1.30
2022-09-17T11:28:43.789Z,1.50
2022-09-17T11:31:43.286Z,1.67
2022-09-17T11:34:35.638Z,1.65
2022-09-17T11:39:43.495Z,1.42
2022-09-17T11:42:24.733Z,1.40
2022-09-17T11:45:02.907Z,1.40
2022-09-17T11:47:35.964Z,1.33
2022-09-17T11:50:05.531Z,1.42
2022-09-17T11:52:39.282Z,1.38
2022-09-17T11:55:23.350Z,2.30
2022-09-17T11:57:57.798Z,1.95
2022-09-17T12:00:24.863Z,1.75
2022-09-17T12:02:57.396Z,1.80
2022-09-17T12:05:44.626Z,1.73
2022-09-17T12:08:34.217Z,1.80
2022-09-17T12:11:27.308Z,1.60
2022-09-17T12:14:28.967Z,1.42
2022-09-17T12:17:00.730Z,2.03
2022-09-17T12:19:34.424Z,1.63
2022-09-17T12:22:21.223Z,1.40
2022-09-17T12:24:53.845Z,1.50
2022-09-17T12:27:35.718Z,1.65
2022-09-17T12:30:13.326Z,1.63
2022-09-17T12:32:48.086Z,1.35
2022-09-17T12:36:03.608Z,1.58
2022-09-17T12:38:35.168Z,1.33
2022-09-17T12:41:04.751Z,2.33
2022-09-17T12:43:52.343Z,2.70
2022-09-17T12:46:36.662Z,2.25
2022-09-17T12:49:34.590Z,1.50
2022-09-17T12:52:07.770Z,1.20
2022-09-17T12:54:53.360Z,1.42
2022-09-17T12:57:45.972Z,1.48
2022-09-17T13:00:14.680Z,1.30
2022-09-17T13:03:17.759Z,1.30
2022-09-17T13:06:03.418Z,1.25
2022-09-17T13:08:51.766Z,1.40
2022-09-17T13:11:37.086Z,1.08
2022-09-17T13:14:25.407Z,1.20
2022-09-17T13:17:04.821Z,0.90
2022-09-17T13:19:47.598Z,0.70
2022-09-17T13:22:18.391Z,1.02
2022-09-17T13:24:48.934Z,0.88
2022-09-17T13:27:26.146Z,0.77
2022-09-17T13:29:55.500Z,0.70
2022-09-17T13:32:34.633Z,0.60
2022-09-17T13:35:09.980Z,0.63
2022-09-17T13:37:54.732Z,0.68
2022-09-17T13:40:35.716Z,0.70
2022-09-17T13:43:07.922Z,0.70
2022-09-17T13:45:55.138Z,0.70
2022-09-17T13:48:25.673Z,0.60
2022-09-17T13:50:53.519Z,0.68
2022-09-17T13:53:26.761Z,0.85
2022-09-17T13:56:06.277Z,0.68
2022-09-17T13:58:34.978Z,0.70
2022-09-17T14:01:12.586Z,0.88
2022-09-17T14:03:44.137Z,0.68
2022-09-17T14:06:14.831Z,0.70
2022-09-17T14:08:44.312Z,0.88
2022-09-17T14:11:34.451Z,0.70
2022-09-17T14:14:04.220Z,0.70
2022-09-17T14:16:37.380Z,0.88
2022-09-17T14:19:04.264Z,0.68
2022-09-17T14:21:34.549Z,0.80
2022-09-17T14:24:04.472Z,0.57
2022-09-17T14:26:57.703Z,0.60
2022-09-17T14:29:49.134Z,0.57
2022-09-17T14:32:36.241Z,0.80
2022-09-17T14:35:15.559Z,0.43
2022-09-17T14:38:02.999Z,0.60
2022-09-17T14:40:34.098Z,0.40
2022-09-17T14:43:03.266Z,1.40
2022-09-17T14:45:36.770Z,0.80
2022-09-17T14:48:28.456Z,0.80
2022-09-17T14:51:17.072Z,0.70
2022-09-17T14:53:48.146Z,0.55
2022-09-17T14:56:20.812Z,1.03
2022-09-17T14:58:53.790Z,1.10
2022-09-17T15:01:24.420Z,1.10
2022-09-17T15:04:09.929Z,1.13
2022-09-17T15:06:36.661Z,1.00
2022-09-17T15:09:03.393Z,1.30
2022-09-17T15:11:33.903Z,1.67
2022-09-17T15:14:05.471Z,1.17
2022-09-17T15:16:33.486Z,1.60
2022-09-17T15:19:03.667Z,1.27
2022-09-17T15:21:41.014Z,2.55
2022-09-17T15:24:24.996Z,1.58
2022-09-17T15:26:55.333Z,1.00
2022-09-17T15:29:26.674Z,0.80
2022-09-17T15:31:53.762Z,4.13
2022-09-17T15:34:20.594Z,2.85
2022-09-17T15:37:19.425Z,2.63
2022-09-17T15:39:51.573Z,1.50
2022-09-17T15:42:31.646Z,1.58
2022-09-17T15:45:28.443Z,1.10
2022-09-17T15:47:57.069Z,1.13
2022-09-17T15:50:29.325Z,0.95
2022-09-17T15:53:21.151Z,0.90
2022-09-17T15:56:02.925Z,0.75
2022-09-17T15:58:34.854Z,0.90
2022-09-17T16:03:40.463Z,0.77
2022-09-17T16:06:19.501Z,0.80
2022-09-17T16:09:09.989Z,0.75
2022-09-17T16:11:36.659Z,0.93
2022-09-17T16:14:03.354Z,1.10
2022-09-17T16:16:35.963Z,1.20
2022-09-17T16:19:04.410Z,1.38
2022-09-17T16:21:32.147Z,1.40
2022-09-17T16:23:59.275Z,2.70
2022-09-17T16:26:30.692Z,1.88
2022-09-17T16:29:04.922Z,2.03
2022-09-17T16:31:33.009Z,2.13
2022-09-17T16:34:00.692Z,1.73
2022-09-17T16:36:30.868Z,1.30
2022-09-17T16:38:57.851Z,1.15
2022-09-17T16:41:24.646Z,1.02
2022-09-17T16:43:51.303Z,0.80
2022-09-17T16:46:17.956Z,1.05
2022-09-17T16:48:46.362Z,1.20
2022-09-17T16:51:14.197Z,1.17
2022-09-17T16:53:41.037Z,1.10
2022-09-17T16:56:13.589Z,1.17
2022-09-17T16:58:41.509Z,1.02
2022-09-17T17:01:14.872Z,1.83
2022-09-17T17:03:41.998Z,1.15
2022-09-17T17:06:19.599Z,1.67
2022-09-17T17:08:46.561Z,1.60
2022-09-17T17:11:14.176Z,1.20
2022-09-17T17:13:43.113Z,2.13
2022-09-17T17:16:12.835Z,1.77
2022-09-17T17:18:43.286Z,1.80
2022-09-17T17:21:11.755Z,1.70
2022-09-17T17:23:38.518Z,1.90
2022-09-17T17:26:05.494Z,1.80
2022-09-17T17:28:36.656Z,1.40
2022-09-17T17:31:05.784Z,1.80
2022-09-17T17:33:32.648Z,1.50
2022-09-17T17:36:07.945Z,1.50
2022-09-17T17:38:35.502Z,1.60
2022-09-17T17:41:15.323Z,1.60
2022-09-17T17:43:42.373Z,1.20
2022-09-17T17:46:10.742Z,1.40
2022-09-17T17:48:38.172Z,1.63
2022-09-17T17:51:07.914Z,2.13
2022-09-17T17:53:34.975Z,1.83
2022-09-17T17:56:05.859Z,1.50
2022-09-17T17:58:33.472Z,1.60
2022-09-17T18:01:00.362Z,1.75
2022-09-17T18:03:26.987Z,1.60
2022-09-17T18:05:56.581Z,1.50
2022-09-17T18:08:24.342Z,2.22
2022-09-17T18:10:52.928Z,2.25
2022-09-17T18:13:19.697Z,1.45
2022-09-17T18:15:54.614Z,1.50
2022-09-17T18:18:22.881Z,1.25
2022-09-17T18:20:51.724Z,1.00
2022-09-17T18:23:19.049Z,0.93
2022-09-17T18:25:59.783Z,1.80
2022-09-17T18:28:28.056Z,1.00
2022-09-17T18:30:54.948Z,1.38
2022-09-17T18:33:24.424Z,1.40
2022-09-17T18:35:53.339Z,1.30
2022-09-17T18:38:19.944Z,1.13
2022-09-17T18:40:46.713Z,1.13
2022-09-17T18:43:13.459Z,0.80
2022-09-17T18:45:40.173Z,1.05
2022-09-17T18:48:07.459Z,1.30
2022-09-17T18:50:35.204Z,1.20
2022-09-17T18:53:03.843Z,1.05
2022-09-17T18:55:31.025Z,1.27
2022-09-17T18:57:57.753Z,1.63
2022-09-17T19:00:24.417Z,1.25
2022-09-17T19:02:51.078Z,1.17
2022-09-17T19:05:18.220Z,1.70
2022-09-17T19:07:46.113Z,1.40
2022-09-17T19:10:13.551Z,1.40
2022-09-17T19:12:40.677Z,1.30
2022-09-17T19:15:09.669Z,1.83
2022-09-17T19:17:36.508Z,1.30
2022-09-17T19:20:04.366Z,1.35
2022-09-17T19:22:32.747Z,0.90
2022-09-17T19:24:59.593Z,1.10
2022-09-17T19:27:26.252Z,1.42
2022-09-17T19:29:52.993Z,1.30
2022-09-17T19:32:20.118Z,1.30
2022-09-17T19:34:46.777Z,1.08
2022-09-17T19:37:13.409Z,1.50
2022-09-17T19:39:40.003Z,1.83
2022-09-17T19:42:06.959Z,1.70
2022-09-17T19:44:33.729Z,1.23
2022-09-17T19:47:00.457Z,1.70
2022-09-17T19:49:27.116Z,1.60
2022-09-17T19:51:53.732Z,1.77
2022-09-17T19:54:20.438Z,1.80
2022-09-17T19:56:47.410Z,1.52
2022-09-17T19:59:14.057Z,2.25
2022-09-17T20:01:40.854Z,2.00
2022-09-17T20:04:07.802Z,1.83
2022-09-17T20:06:35.129Z,2.03
2022-09-17T20:09:01.948Z,2.08
2022-09-17T20:11:28.635Z,2.13
2022-09-17T20:14:03.091Z,1.90
2022-09-17T20:16:30.560Z,1.80
2022-09-17T20:18:57.272Z,2.60
2022-09-17T20:21:27.680Z,2.60
2022-09-17T20:23:55.391Z,2.17
2022-09-17T20:26:22.436Z,2.22
2022-09-17T20:28:50.168Z,1.40
2022-09-17T20:31:25.697Z,2.20
2022-09-17T20:33:57.572Z,1.92
2022-09-17T20:36:26.525Z,1.85
2022-09-17T20:41:42.265Z,1.83
2022-09-17T20:44:08.981Z,2.65
2022-09-17T20:46:35.721Z,1.50
2022-09-17T20:49:02.925Z,2.15
2022-09-17T20:51:30.504Z,1.88
2022-09-17T20:53:57.776Z,1.50
2022-09-17T20:56:27.708Z,1.88
2022-09-17T20:59:09.346Z,2.08
2022-09-17T21:01:37.328Z,2.10
2022-09-17T21:04:06.773Z,1.73
2022-09-17T21:06:37.098Z,1.70
2022-09-17T21:09:05.967Z,2.03
2022-09-17T21:11:33.831Z,1.95
2022-09-17T21:14:01.080Z,1.98
2022-09-17T21:16:28.544Z,1.80
2022-09-17T21:18:57.913Z,2.50
2022-09-17T21:21:25.647Z,1.92
2022-09-17T21:23:52.656Z,2.13
2022-09-17T21:26:21.591Z,1.80
2022-09-17T21:28:50.104Z,1.67
2022-09-17T21:31:19.294Z,2.13
2022-09-17T21:33:47.739Z,2.10
2022-09-17T21:36:17.133Z,3.03
2022-09-17T21:38:44.279Z,2.22
2022-09-17T21:41:15.362Z,2.28
2022-09-17T21:43:43.113Z,2.10
2022-09-17T21:46:14.106Z,1.92
2022-09-17T21:48:45.879Z,2.47
2022-09-17T21:51:18.019Z,1.88
2022-09-17T21:53:45.565Z,2.55
2022-09-17T21:56:15.328Z,2.33
2022-09-17T21:58:43.544Z,2.13
2022-09-17T22:01:16.718Z,1.80
2022-09-17T22:03:44.574Z,2.17
2022-09-17T22:06:23.935Z,2.38
2022-09-17T22:08:51.649Z,3.05
2022-09-17T22:11:19.784Z,1.90
2022-09-17T22:14:04.657Z,2.40
2022-09-17T22:16:33.231Z,2.40
2022-09-17T22:18:59.863Z,2.17
2022-09-17T22:21:28.151Z,1.80
2022-09-17T22:23:57.331Z,2.20
2022-09-17T22:26:26.298Z,2.78
2022-09-17T22:28:53.413Z,1.80
2022-09-17T22:31:21.599Z,1.98
2022-09-17T22:33:49.217Z,1.90
2022-09-17T22:36:21.876Z,2.20
2022-09-17T22:38:54.066Z,1.90
2022-09-17T22:41:31.784Z,2.03
2022-09-17T22:44:10.866Z,1.80
2022-09-17T22:46:39.598Z,1.90
2022-09-17T22:49:07.578Z,2.08
2022-09-17T22:51:34.403Z,1.98
2022-09-17T22:54:02.975Z,2.08
2022-09-17T22:56:30.437Z,2.10
2022-09-17T22:58:57.973Z,2.22
2022-09-17T23:01:31.149Z,2.20
2022-09-17T23:03:58.755Z,2.53
2022-09-17T23:06:29.232Z,3.00
2022-09-17T23:08:56.351Z,2.67
2022-09-17T23:11:27.167Z,2.85
2022-09-17T23:13:57.546Z,2.42
2022-09-17T23:16:25.473Z,2.38
2022-09-17T23:18:52.379Z,2.22
2022-09-17T23:21:19.458Z,2.40
2022-09-17T23:23:48.412Z,2.05
2022-09-17T23:26:23.504Z,2.47
2022-09-17T23:28:51.047Z,2.90
2022-09-17T23:31:20.997Z,2.80
2022-09-17T23:33:48.250Z,2.95
2022-09-17T23:36:19.178Z,2.53
2022-09-17T23:38:46.926Z,2.40
2022-09-17T23:41:20.473Z,3.30
2022-09-17T23:43:49.931Z,2.22
2022-09-17T23:46:17.690Z,2.72
2022-09-17T23:48:44.720Z,2.53
2022-09-17T23:51:11.544Z,2.42
2022-09-17T23:53:38.728Z,2.40
2022-09-17T23:56:13.213Z,2.35
2022-09-17T23:58:40.164Z,2.53
